createdAt,value
2022-08-20T00:01:39.388Z,101294.91
2022-08-20T00:04:06.889Z,101300.28
2022-08-20T00:06:34.702Z,101296.97
2022-08-20T00:09:01.907Z,101299.03
2022-08-20T00:11:29.196Z,101311.59
2022-08-20T00:13:59.739Z,101315.69
2022-08-20T00:16:32.986Z,101307.88
2022-08-20T00:19:01.531Z,101310.53
2022-08-20T00:21:29.379Z,101306.41
2022-08-20T00:23:58.519Z,101303.31
2022-08-20T00:26:26.399Z,101300.44
2022-08-20T00:28:53.694Z,101299.81
2022-08-20T00:31:23.748Z,101300.03
2022-08-20T00:33:52.742Z,101292.19
2022-08-20T00:36:20.457Z,101299.38
2022-08-20T00:38:48.089Z,101301.88
2022-08-20T00:41:22.486Z,101296.53
2022-08-20T00:44:13.915Z,101299.81
2022-08-20T00:46:43.848Z,101285.81
2022-08-20T00:49:25.224Z,101285.22
2022-08-20T00:52:13.297Z,101293.22
2022-08-20T00:54:55.792Z,101289.94
2022-08-20T00:57:53.309Z,101290.53
2022-08-20T01:00:23.246Z,101287.47
2022-08-20T01:02:50.971Z,101292.38
2022-08-20T01:05:19.134Z,101297.94
2022-08-20T01:07:46.468Z,101298.13
2022-08-20T01:10:20.405Z,101300.81
2022-08-20T01:12:59.026Z,101304.47
2022-08-20T01:15:31.057Z,101306.72
2022-08-20T01:18:00.898Z,101304.06
2022-08-20T01:20:34.478Z,101310.19
2022-08-20T01:23:26.082Z,101315.75
2022-08-20T01:26:05.519Z,101305.69
2022-08-20T01:28:38.390Z,101307.97
2022-08-20T01:31:07.849Z,101314.31
2022-08-20T01:33:44.218Z,101317.78
2022-08-20T01:36:15.146Z,101318.00
2022-08-20T01:38:53.895Z,101315.69
2022-08-20T01:41:29.431Z,101315.09
2022-08-20T01:43:58.306Z,101310.38
2022-08-20T01:46:34.958Z,101299.91
2022-08-20T01:49:23.123Z,101296.63
2022-08-20T01:51:53.795Z,101297.84
2022-08-20T01:54:22.229Z,101297.41
2022-08-20T01:57:06.474Z,101307.47
2022-08-20T01:59:33.765Z,101306.84
2022-08-20T02:02:02.954Z,101305.59
2022-08-20T02:04:30.792Z,101305.16
2022-08-20T02:07:02.254Z,101301.91
2022-08-20T02:09:32.449Z,101300.81
2022-08-20T02:12:00.762Z,101306.53
2022-08-20T02:14:28.595Z,101306.72
2022-08-20T02:16:58.869Z,101312.28
2022-08-20T02:19:36.090Z,101307.13
2022-08-20T02:22:22.183Z,101312.22
2022-08-20T02:24:49.661Z,101302.56
2022-08-20T02:27:16.848Z,101305.47
2022-08-20T02:29:44.026Z,101309.34
2022-08-20T02:32:32.366Z,101311.16
2022-08-20T02:34:58.702Z,101308.69
2022-08-20T02:37:25.820Z,101314.25
2022-08-20T02:39:52.796Z,101306.63
2022-08-20T02:42:19.958Z,101305.78
2022-08-20T02:44:47.125Z,101305.78
2022-08-20T02:47:14.234Z,101306.19
2022-08-20T02:49:41.251Z,101300.22
2022-08-20T02:52:08.692Z,101297.13
2022-08-20T02:54:36.242Z,101296.53
2022-08-20T02:57:04.615Z,101302.41
2022-08-20T02:59:31.729Z,101296.84
2022-08-20T03:02:00.512Z,101292.75
2022-08-20T03:04:31.472Z,101292.09
2022-08-20T03:07:00.255Z,101296.84
2022-08-20T03:09:27.603Z,101294.53
2022-08-20T03:11:54.814Z,101289.41
2022-08-20T03:14:21.848Z,101294.09
2022-08-20T03:16:49.094Z,101293.47
2022-08-20T03:19:16.417Z,101290.00
2022-08-20T03:21:43.793Z,101285.03
2022-08-20T03:24:11.350Z,101287.91
2022-08-20T03:26:39.040Z,101289.75
2022-08-20T03:29:06.152Z,101292.63
2022-08-20T03:31:33.353Z,101296.28
2022-08-20T03:34:00.594Z,101287.22
2022-08-20T03:36:29.209Z,101288.63
2022-08-20T03:38:59.438Z,101290.91
2022-08-20T03:41:27.135Z,101297.72
2022-08-20T03:43:54.974Z,101299.38
2022-08-20T03:46:23.481Z,101302.22
2022-08-20T03:48:59.821Z,101300.97
2022-08-20T03:51:31.770Z,101297.66
2022-08-20T03:54:12.820Z,101298.66
2022-08-20T03:56:39.698Z,101294.38
2022-08-20T03:59:06.591Z,101289.84
2022-08-20T04:01:44.655Z,101298.41
2022-08-20T04:04:13.581Z,101287.13
2022-08-20T04:06:42.497Z,101286.66
2022-08-20T04:09:12.347Z,101285.66
2022-08-20T04:11:40.627Z,101293.63
2022-08-20T04:14:08.019Z,101292.56
2022-08-20T04:16:37.892Z,101293.78
2022-08-20T04:19:05.485Z,101292.31
2022-08-20T04:21:34.402Z,101293.53
2022-08-20T04:24:04.424Z,101282.88
2022-08-20T04:26:32.126Z,101289.88
2022-08-20T04:28:59.337Z,101286.56
2022-08-20T04:31:33.671Z,101288.78
2022-08-20T04:34:08.183Z,101295.53
2022-08-20T04:36:35.993Z,101300.84
2022-08-20T04:39:03.258Z,101301.66
2022-08-20T04:41:31.756Z,101306.38
2022-08-20T04:43:58.744Z,101312.06
2022-08-20T04:46:29.074Z,101304.84
2022-08-20T04:48:57.360Z,101311.38
2022-08-20T04:51:25.452Z,101309.72
2022-08-20T04:53:56.586Z,101305.44
2022-08-20T04:56:26.248Z,101310.53
2022-08-20T04:58:57.351Z,101312.78
2022-08-20T05:01:25.207Z,101301.88
2022-08-20T05:03:55.119Z,101304.72
2022-08-20T05:06:26.458Z,101299.19
2022-08-20T05:08:54.781Z,101310.28
2022-08-20T05:11:34.538Z,101306.22
2022-08-20T05:14:05.462Z,101299.44
2022-08-20T05:16:38.058Z,101311.13
2022-08-20T05:19:07.057Z,101317.28
2022-08-20T05:21:34.229Z,101307.63
2022-08-20T05:24:01.319Z,101313.53
2022-08-20T05:26:28.301Z,101321.50
2022-08-20T05:28:58.426Z,101323.16
2022-08-20T05:31:32.158Z,101325.84
2022-08-20T05:34:12.519Z,101328.09
2022-08-20T05:36:50.488Z,101339.22
2022-08-20T05:39:22.633Z,101328.75
2022-08-20T05:41:51.440Z,101340.41
2022-08-20T05:44:19.063Z,101345.09
2022-08-20T05:46:47.192Z,101347.41
2022-08-20T05:49:19.114Z,101340.41
2022-08-20T05:51:46.965Z,101339.41
2022-08-20T05:54:15.585Z,101342.91
2022-08-20T05:56:42.521Z,101336.34
2022-08-20T05:59:11.008Z,101339.84
2022-08-20T06:01:39.965Z,101344.81
2022-08-20T06:04:27.228Z,101341.94
2022-08-20T06:07:03.144Z,101347.72
2022-08-20T06:09:32.308Z,101340.56
2022-08-20T06:12:09.480Z,101354.06
2022-08-20T06:14:36.456Z,101352.41
2022-08-20T06:17:13.521Z,101353.63
2022-08-20T06:19:44.106Z,101352.16
2022-08-20T06:22:18.783Z,101356.84
2022-08-20T06:24:52.600Z,101359.13
2022-08-20T06:27:20.244Z,101351.59
2022-08-20T06:29:47.705Z,101359.59
2022-08-20T06:32:15.389Z,101360.59
2022-08-20T06:34:50.019Z,101361.66
2022-08-20T06:37:20.828Z,101368.47
2022-08-20T06:39:47.718Z,101367.91
2022-08-20T06:42:14.636Z,101362.19
2022-08-20T06:44:51.072Z,101364.28
2022-08-20T06:47:20.842Z,101367.59
2022-08-20T06:49:48.753Z,101369.25
2022-08-20T06:52:18.717Z,101360.66
2022-08-20T06:54:46.261Z,101363.75
2022-08-20T06:57:13.306Z,101359.91
2022-08-20T06:59:40.210Z,101357.25
2022-08-20T07:02:10.054Z,101360.38
2022-08-20T07:04:37.674Z,101353.03
2022-08-20T07:07:04.992Z,101358.97
2022-08-20T07:09:31.828Z,101360.44
2022-08-20T07:11:58.991Z,101358.78
2022-08-20T07:14:26.275Z,101354.72
2022-08-20T07:16:53.133Z,101353.53
2022-08-20T07:19:20.028Z,101355.13
2022-08-20T07:21:48.310Z,101345.13
2022-08-20T07:24:15.167Z,101345.94
2022-08-20T07:26:42.033Z,101346.78
2022-08-20T07:29:08.848Z,101344.09
2022-08-20T07:31:54.312Z,101344.09
2022-08-20T07:34:21.099Z,101347.59
2022-08-20T07:36:49.079Z,101353.19
2022-08-20T07:39:15.904Z,101353.44
2022-08-20T07:41:43.641Z,101364.75
2022-08-20T07:44:21.821Z,101367.50
2022-08-20T07:46:59.536Z,101367.31
2022-08-20T07:49:26.476Z,101364.91
2022-08-20T07:51:53.312Z,101371.28
2022-08-20T07:54:20.130Z,101374.03
2022-08-20T07:56:47.201Z,101375.69
2022-08-20T07:59:16.549Z,101365.25
2022-08-20T08:01:43.398Z,101365.28
2022-08-20T08:04:10.224Z,101371.72
2022-08-20T08:06:37.175Z,101374.63
2022-08-20T08:09:11.876Z,101365.19
2022-08-20T08:11:47.036Z,101376.09
2022-08-20T08:14:15.642Z,101364.81
2022-08-20T08:16:45.772Z,101362.19
2022-08-20T08:19:16.124Z,101363.41
2022-08-20T08:21:44.429Z,101371.66
2022-08-20T08:24:15.444Z,101373.53
2022-08-20T08:26:46.326Z,101371.69
2022-08-20T08:29:13.659Z,101363.09
2022-08-20T08:31:41.450Z,101370.28
2022-08-20T08:34:08.748Z,101355.53
2022-08-20T08:36:35.640Z,101361.09
2022-08-20T08:39:02.527Z,101359.41
2022-08-20T08:41:40.626Z,101363.38
2022-08-20T08:44:12.846Z,101361.28
2022-08-20T08:46:43.790Z,101359.25
2022-08-20T08:49:14.689Z,101361.97
2022-08-20T08:51:45.257Z,101356.84
2022-08-20T08:54:17.614Z,101357.06
2022-08-20T08:56:49.773Z,101362.19
2022-08-20T08:59:19.187Z,101354.78
2022-08-20T09:02:08.199Z,101355.41
2022-08-20T09:04:40.243Z,101352.50
2022-08-20T09:07:12.055Z,101351.28
2022-08-20T09:09:42.905Z,101348.81
2022-08-20T09:12:14.862Z,101353.53
2022-08-20T09:14:41.921Z,101342.41
2022-08-20T09:17:08.905Z,101351.66
2022-08-20T09:19:36.124Z,101350.44
2022-08-20T09:22:15.558Z,101353.09
2022-08-20T09:24:43.266Z,101350.00
2022-08-20T09:27:11.003Z,101355.97
2022-08-20T09:29:37.940Z,101350.22
2022-08-20T09:32:18.007Z,101348.38
2022-08-20T09:34:47.994Z,101352.91
2022-08-20T09:37:15.552Z,101350.03
2022-08-20T09:39:43.344Z,101345.28
2022-08-20T09:42:18.697Z,101358.06
2022-08-20T09:44:46.416Z,101358.06
2022-08-20T09:47:13.873Z,101355.16
2022-08-20T09:49:41.193Z,101351.47
2022-08-20T09:52:21.592Z,101353.31
2022-08-20T09:54:49.502Z,101354.13
2022-08-20T09:57:18.315Z,101349.78
2022-08-20T09:59:57.706Z,101350.81
2022-08-20T10:02:25.145Z,101341.72
2022-08-20T10:04:52.363Z,101342.53
2022-08-20T10:07:19.394Z,101337.38
2022-08-20T10:09:46.290Z,101335.13
2022-08-20T10:12:13.810Z,101326.44
2022-08-20T10:14:40.954Z,101325.75
2022-08-20T10:17:07.924Z,101328.19
2022-08-20T10:19:34.902Z,101324.88
2022-08-20T10:22:13.277Z,101326.09
2022-08-20T10:24:40.179Z,101325.22
2022-08-20T10:27:07.456Z,101320.06
2022-08-20T10:29:34.460Z,101321.22
2022-08-20T10:32:16.322Z,101318.06
2022-08-20T10:34:45.073Z,101323.81
2022-08-20T10:37:21.741Z,101316.78
2022-08-20T10:39:48.654Z,101315.75
2022-08-20T10:42:15.883Z,101316.22
2022-08-20T10:44:42.823Z,101323.81
2022-08-20T10:47:20.626Z,101317.19
2022-08-20T10:49:49.292Z,101317.19
2022-08-20T10:52:16.222Z,101326.03
2022-08-20T10:54:43.138Z,101313.88
2022-08-20T10:57:17.714Z,101318.56
2022-08-20T10:59:47.272Z,101315.44
2022-08-20T11:02:16.471Z,101307.19
2022-08-20T11:04:43.993Z,101298.09
2022-08-20T11:07:49.864Z,101302.41
2022-08-20T11:10:15.492Z,101305.91
2022-08-20T11:12:45.514Z,101302.66
2022-08-20T11:15:14.187Z,101292.94
2022-08-20T11:17:42.921Z,101294.34
2022-08-20T11:20:12.285Z,101294.53
2022-08-20T11:22:39.152Z,101298.44
2022-08-20T11:25:07.472Z,101303.50
2022-08-20T11:27:38.900Z,101291.91
2022-08-20T11:30:08.877Z,101295.41
2022-08-20T11:32:36.336Z,101292.88
2022-08-20T11:35:14.048Z,101283.97
2022-08-20T11:37:52.128Z,101288.69
2022-08-20T11:40:19.395Z,101300.25
2022-08-20T11:43:12.591Z,101293.91
2022-08-20T11:45:37.481Z,101287.72
2022-08-20T11:48:05.511Z,101284.19
2022-08-20T11:50:35.384Z,101291.63
2022-08-20T11:53:02.242Z,101285.03
2022-08-20T11:55:30.727Z,101287.13
2022-08-20T11:58:00.138Z,101288.19
2022-08-20T12:00:32.768Z,101278.28
2022-08-20T12:03:01.976Z,101285.88
2022-08-20T12:05:30.278Z,101277.81
2022-08-20T12:08:00.203Z,101284.00
2022-08-20T12:10:28.329Z,101283.19
2022-08-20T12:12:56.776Z,101294.31
2022-08-20T12:15:25.494Z,101285.22
2022-08-20T12:17:52.855Z,101298.44
2022-08-20T12:20:20.326Z,101288.28
2022-08-20T12:22:47.167Z,101287.63
2022-08-20T12:25:14.470Z,101289.25
2022-08-20T12:27:42.180Z,101293.38
2022-08-20T12:30:13.057Z,101288.03
2022-08-20T12:32:40.390Z,101284.66
2022-08-20T12:35:08.863Z,101281.53
2022-08-20T12:37:36.963Z,101283.78
2022-08-20T12:40:07.009Z,101278.63
2022-08-20T12:42:34.193Z,101279.09
2022-08-20T12:45:01.504Z,101280.69
2022-08-20T12:47:34.653Z,101277.81
2022-08-20T12:50:14.294Z,101284.34
2022-08-20T12:52:42.159Z,101278.94
2022-08-20T12:55:10.674Z,101279.28
2022-08-20T12:57:50.005Z,101278.47
2022-08-20T13:00:34.665Z,101277.88
2022-08-20T13:03:03.489Z,101281.41
2022-08-20T13:05:31.791Z,101282.22
2022-08-20T13:07:59.645Z,101277.63
2022-08-20T13:10:32.635Z,101278.84
2022-08-20T13:13:02.835Z,101272.22
2022-08-20T13:15:31.774Z,101269.31
2022-08-20T13:18:02.477Z,101273.16
2022-08-20T13:20:31.021Z,101271.91
2022-08-20T13:23:02.141Z,101268.78
2022-08-20T13:25:29.055Z,101269.13
2022-08-20T13:28:02.431Z,101265.63
2022-08-20T13:30:29.245Z,101265.19
2022-08-20T13:32:57.015Z,101266.59
2022-08-20T13:35:24.387Z,101256.44
2022-08-20T13:37:51.327Z,101258.44
2022-08-20T13:40:18.929Z,101261.50
2022-08-20T13:42:46.008Z,101260.28
2022-08-20T13:45:13.412Z,101248.25
2022-08-20T13:47:42.023Z,101243.69
2022-08-20T13:50:18.657Z,101245.13
2022-08-20T13:52:49.043Z,101235.53
2022-08-20T13:55:19.032Z,101229.47
2022-08-20T13:57:47.437Z,101235.81
2022-08-20T14:00:21.735Z,101237.59
2022-08-20T14:02:59.294Z,101229.41
2022-08-20T14:05:26.356Z,101224.97
2022-08-20T14:07:53.210Z,101219.50
2022-08-20T14:10:24.569Z,101208.28
2022-08-20T14:12:51.518Z,101210.31
2022-08-20T14:15:19.376Z,101198.03
2022-08-20T14:17:52.979Z,101198.38
2022-08-20T14:20:22.950Z,101204.91
2022-08-20T14:22:50.286Z,101200.34
2022-08-20T14:25:18.732Z,101203.88
2022-08-20T14:27:45.959Z,101199.91
2022-08-20T14:30:19.531Z,101190.31
2022-08-20T14:32:47.028Z,101197.13
2022-08-20T14:35:17.954Z,101195.25
2022-08-20T14:37:49.679Z,101180.00
2022-08-20T14:40:18.229Z,101184.00
2022-08-20T14:42:47.710Z,101183.31
2022-08-20T14:45:19.935Z,101181.25
2022-08-20T14:47:53.618Z,101177.25
2022-08-20T14:50:25.381Z,101178.06
2022-08-20T14:52:53.613Z,101181.34
2022-08-20T14:55:24.478Z,101182.41
2022-08-20T14:57:51.785Z,101174.56
2022-08-20T15:00:23.225Z,101177.72
2022-08-20T15:02:50.266Z,101175.22
2022-08-20T15:05:17.675Z,101172.53
2022-08-20T15:07:47.955Z,101153.25
2022-08-20T15:10:32.523Z,101159.56
2022-08-20T15:13:00.447Z,101161.56
2022-08-20T15:15:27.500Z,101159.81
2022-08-20T15:17:57.100Z,101160.75
2022-08-20T15:20:28.727Z,101158.38
2022-08-20T15:22:55.769Z,101158.50
2022-08-20T15:25:25.267Z,101149.97
2022-08-20T15:27:58.262Z,101145.41
2022-08-20T15:30:29.122Z,101149.16
2022-08-20T15:32:56.325Z,101150.53
2022-08-20T15:35:27.448Z,101140.13
2022-08-20T15:37:57.332Z,101142.34
2022-08-20T15:40:30.647Z,101144.56
2022-08-20T15:42:59.628Z,101141.38
2022-08-20T15:45:27.423Z,101150.88
2022-08-20T15:48:07.776Z,101150.16
2022-08-20T15:51:03.382Z,101151.78
2022-08-20T15:53:37.978Z,101140.22
2022-08-20T15:56:23.020Z,101142.53
2022-08-20T15:59:12.999Z,101146.78
2022-08-20T16:01:48.843Z,101136.22
2022-08-20T16:04:27.766Z,101138.00
2022-08-20T16:07:00.367Z,101139.75
2022-08-20T16:09:39.251Z,101133.81
2022-08-20T16:12:17.993Z,101140.03
2022-08-20T16:14:49.108Z,101136.03
2022-08-20T16:17:24.586Z,101136.38
2022-08-20T16:19:58.550Z,101127.81
2022-08-20T16:22:29.537Z,101124.09
2022-08-20T16:24:56.673Z,101133.22
2022-08-20T16:27:55.087Z,101123.97
2022-08-20T16:30:32.783Z,101124.22
2022-08-20T16:33:16.481Z,101123.97
2022-08-20T16:35:59.158Z,101120.13
2022-08-20T16:38:51.945Z,101128.22
2022-08-20T16:41:23.607Z,101118.38
2022-08-20T16:44:04.250Z,101124.47
2022-08-20T16:46:38.076Z,101114.19
2022-08-20T16:49:13.946Z,101119.44
2022-08-20T16:51:51.998Z,101117.56
2022-08-20T16:54:29.317Z,101119.44
2022-08-20T16:57:02.008Z,101121.56
2022-08-20T16:59:29.233Z,101121.81
2022-08-20T17:02:17.361Z,101117.69
2022-08-20T17:04:59.544Z,101119.22
2022-08-20T17:07:51.373Z,101118.41
2022-08-20T17:10:20.633Z,101113.03
2022-08-20T17:13:02.951Z,101116.31
2022-08-20T17:15:35.659Z,101113.13
2022-08-20T17:18:39.354Z,101115.59
2022-08-20T17:21:11.762Z,101118.06
2022-08-20T17:23:55.576Z,101118.50
2022-08-20T17:26:31.798Z,101124.38
2022-08-20T17:29:02.888Z,101124.88
2022-08-20T17:31:38.784Z,101125.09
2022-08-20T17:34:12.846Z,101125.31
2022-08-20T17:36:53.442Z,101118.56
2022-08-20T17:39:23.226Z,101110.69
2022-08-20T17:41:54.781Z,101109.84
2022-08-20T17:44:26.112Z,101121.66
2022-08-20T17:46:54.513Z,101118.63
2022-08-20T17:49:33.771Z,101123.19
2022-08-20T17:52:13.032Z,101128.22
2022-08-20T17:54:45.745Z,101124.38
2022-08-20T17:57:28.372Z,101122.97
2022-08-20T18:00:02.468Z,101127.41
2022-08-20T18:02:31.175Z,101125.41
2022-08-20T18:04:58.222Z,101122.13
2022-08-20T18:07:31.448Z,101123.41
2022-08-20T18:10:23.835Z,101134.66
2022-08-20T18:13:20.006Z,101121.44
2022-08-20T18:15:56.260Z,101135.78
2022-08-20T18:18:36.207Z,101138.59
2022-08-20T18:21:37.049Z,101138.94
2022-08-20T18:24:30.041Z,101137.97
2022-08-20T18:27:01.312Z,101145.44
2022-08-20T18:29:35.216Z,101137.84
2022-08-20T18:32:37.261Z,101136.47
2022-08-20T18:35:13.845Z,101143.69
2022-08-20T18:37:41.066Z,101129.63
2022-08-20T18:40:16.880Z,101131.97
2022-08-20T18:42:44.403Z,101132.19
2022-08-20T18:45:11.355Z,101137.34
2022-08-20T18:47:45.375Z,101141.06
2022-08-20T18:50:45.947Z,101136.97
2022-08-20T18:53:19.912Z,101146.53
2022-08-20T18:56:05.046Z,101145.97
2022-08-20T18:58:55.243Z,101145.13
2022-08-20T19:01:22.557Z,101152.00
2022-08-20T19:03:53.383Z,101151.41
2022-08-20T19:06:51.658Z,101153.97
2022-08-20T19:09:44.810Z,101149.03
2022-08-20T19:12:28.500Z,101156.53
2022-08-20T19:15:00.827Z,101157.19
2022-08-20T19:17:50.248Z,101158.94
2022-08-20T19:20:21.717Z,101165.78
2022-08-20T19:22:52.426Z,101170.56
2022-08-20T19:25:30.549Z,101173.09
2022-08-20T19:28:06.731Z,101179.38
2022-08-20T19:30:40.581Z,101178.19
2022-08-20T19:33:08.634Z,101181.31
2022-08-20T19:35:36.389Z,101180.72
2022-08-20T19:38:06.095Z,101172.31
2022-08-20T19:40:39.204Z,101175.19
2022-08-20T19:43:15.264Z,101178.31
2022-08-20T19:45:49.263Z,101180.84
2022-08-20T19:48:28.022Z,101176.72
2022-08-20T19:51:14.884Z,101183.13
2022-08-20T19:53:48.908Z,101181.28
2022-08-20T19:56:24.862Z,101178.03
2022-08-20T19:59:21.264Z,101179.88
2022-08-20T20:01:54.202Z,101178.22
2022-08-20T20:04:21.253Z,101184.63
2022-08-20T20:06:48.869Z,101181.59
2022-08-20T20:09:25.046Z,101193.81
2022-08-20T20:11:58.599Z,101190.72
2022-08-20T20:14:32.119Z,101190.16
2022-08-20T20:17:00.004Z,101193.03
2022-08-20T20:19:28.117Z,101192.22
2022-08-20T20:22:19.863Z,101192.69
2022-08-20T20:25:04.189Z,101192.53
2022-08-20T20:27:32.377Z,101193.19
2022-08-20T20:30:08.609Z,101195.25
2022-08-20T20:32:41.690Z,101194.28
2022-08-20T20:35:08.542Z,101195.31
2022-08-20T20:37:50.145Z,101195.75
2022-08-20T20:40:28.110Z,101196.41
2022-08-20T20:43:07.849Z,101191.47
2022-08-20T20:45:45.905Z,101188.63
2022-08-20T20:48:23.672Z,101183.09
2022-08-20T20:50:56.409Z,101194.28
2022-08-20T20:53:53.101Z,101192.06
2022-08-20T20:56:33.622Z,101190.78
2022-08-20T20:59:06.238Z,101196.22
2022-08-20T21:01:48.452Z,101196.06
2022-08-20T21:04:17.237Z,101204.31
2022-08-20T21:06:44.457Z,101193.56
2022-08-20T21:09:11.374Z,101193.78
2022-08-20T21:11:38.187Z,101191.56
2022-08-20T21:14:05.120Z,101194.44
2022-08-20T21:16:31.972Z,101187.66
2022-08-20T21:18:58.832Z,101195.72
2022-08-20T21:21:25.823Z,101182.53
2022-08-20T21:23:52.703Z,101193.44
2022-08-20T21:26:19.657Z,101188.53
2022-08-20T21:28:46.566Z,101184.22
2022-08-20T21:31:13.583Z,101185.47
2022-08-20T21:33:40.478Z,101185.06
2022-08-20T21:36:07.675Z,101174.63
2022-08-20T21:38:34.444Z,101168.06
2022-08-20T21:41:01.497Z,101172.81
2022-08-20T21:43:32.809Z,101168.47
2022-08-20T21:46:02.351Z,101171.38
2022-08-20T21:48:30.190Z,101169.75
2022-08-20T21:50:56.957Z,101166.44
2022-08-20T21:53:23.794Z,101166.66
2022-08-20T21:55:50.949Z,101158.63
2022-08-20T21:58:19.261Z,101171.22
2022-08-20T22:00:58.992Z,101167.72
2022-08-20T22:03:38.501Z,101164.41
2022-08-20T22:06:07.450Z,101166.47
2022-08-20T22:08:34.553Z,101158.06
2022-08-20T22:11:02.282Z,101160.94
2022-08-20T22:13:32.876Z,101163.44
2022-08-20T22:16:09.180Z,101169.22
2022-08-20T22:18:36.813Z,101175.41
2022-08-20T22:21:07.644Z,101172.94
2022-08-20T22:23:35.827Z,101168.00
2022-08-20T22:26:02.733Z,101172.97
2022-08-20T22:28:29.508Z,101175.03
2022-08-20T22:30:56.437Z,101175.22
2022-08-20T22:33:23.843Z,101170.50
2022-08-20T22:35:53.979Z,101169.09
2022-08-20T22:38:21.680Z,101164.78
2022-08-20T22:40:48.726Z,101173.44
2022-08-20T22:43:16.304Z,101175.69
2022-08-20T22:45:46.058Z,101171.81
2022-08-20T22:48:17.035Z,101163.19
2022-08-20T22:50:45.170Z,101164.22
2022-08-20T22:53:13.909Z,101166.88
2022-08-20T22:55:40.787Z,101160.09
2022-08-20T22:58:08.902Z,101156.63
2022-08-20T23:00:38.052Z,101159.72
2022-08-20T23:03:05.857Z,101151.94
2022-08-20T23:05:36.251Z,101160.97
2022-08-20T23:08:04.741Z,101170.47
2022-08-20T23:10:33.559Z,101168.81
2022-08-20T23:13:01.637Z,101171.28
2022-08-20T23:15:30.152Z,101166.16
2022-08-20T23:18:01.553Z,101169.66
2022-08-20T23:20:28.931Z,101167.41
2022-08-20T23:22:56.035Z,101161.44
2022-08-20T23:25:23.171Z,101169.44
2022-08-20T23:27:53.902Z,101166.97
2022-08-20T23:30:21.728Z,101160.59
2022-08-20T23:32:49.281Z,101168.41
2022-08-20T23:35:17.046Z,101162.25
2022-08-20T23:37:47.359Z,101159.78
2022-08-20T23:40:16.057Z,101161.03
2022-08-20T23:42:43.369Z,101165.97
2022-08-20T23:45:10.830Z,101169.25
2022-08-20T23:47:38.439Z,101167.84
2022-08-20T23:50:06.883Z,101165.38
2022-08-20T23:52:33.815Z,101163.94
2022-08-20T23:55:00.673Z,101160.44
2022-08-20T23:57:27.606Z,101156.50
2022-08-20T23:59:54.770Z,101163.91
